Time;durP1;ratioP1;P1;durP2;ratioP2;P2;SDS_P1;SDS_P2;PMS_P1;PMS_P2;Temp;Humidity;BMP_temperature;BMP_pressure;BME280_temperature;BME280_humidity;BME280_pressure;Samples;Min_cycle;Max_cycle;Signal;HPM_P1;HPM_P2
2020/12/06 00:01:20;;;;;;;1.40;0.57;;;5.10;99.90;;;;;;5071713;28;20705;-84
2020/12/06 00:03:46;;;;;;;0.20;0.20;;;5.20;99.90;;;;;;5072741;28;20178;-85
2020/12/06 00:06:11;;;;;;;0.40;0.40;;;5.20;99.90;;;;;;5072697;28;20190;-84
2020/12/06 00:08:38;;;;;;;0.50;0.50;;;5.30;99.90;;;;;;5072480;28;20263;-85
2020/12/06 00:11:05;;;;;;;0.20;0.20;;;4.90;99.90;;;;;;5071458;28;20195;-85
2020/12/06 00:13:31;;;;;;;1.03;0.57;;;4.90;99.90;;;;;;5073256;28;20218;-84
2020/12/06 00:15:56;;;;;;;1.07;1.07;;;4.70;99.90;;;;;;5072149;28;20189;-84
2020/12/06 00:18:22;;;;;;;1.90;0.63;;;4.80;99.90;;;;;;5072107;28;20189;-85
2020/12/06 00:20:47;;;;;;;0.10;0.10;;;4.60;99.90;;;;;;5073309;28;20211;-84
2020/12/06 00:23:20;;;;;;;0.37;0.37;;;4.80;99.90;;;;;;5073163;28;20250;-84
2020/12/06 00:25:49;;;;;;;0.73;0.73;;;5.00;99.90;;;;;;5078056;28;20173;-85
2020/12/06 00:28:15;;;;;;;0.30;0.30;;;5.10;99.90;;;;;;5077593;28;20599;-85
2020/12/06 00:30:40;;;;;;;0.40;0.40;;;5.20;99.90;;;;;;5081144;28;20232;-85
2020/12/06 00:33:06;;;;;;;0.50;0.50;;;5.30;99.90;;;;;;5079125;28;20277;-84
2020/12/06 00:35:31;;;;;;;0.83;0.83;;;5.30;99.90;;;;;;5078392;28;20193;-84
2020/12/06 00:37:57;;;;;;;0.60;0.60;;;5.50;99.90;;;;;;5078208;28;20218;-84
2020/12/06 00:40:23;;;;;;;0.50;0.50;;;5.40;99.90;;;;;;5078935;28;20562;-83
2020/12/06 00:42:48;;;;;;;0.30;0.30;;;5.50;99.90;;;;;;5077428;28;20212;-84
2020/12/06 00:45:14;;;;;;;1.00;0.83;;;5.40;99.90;;;;;;5074068;28;20177;-84
2020/12/06 00:47:39;;;;;;;0.70;0.57;;;5.50;99.90;;;;;;5076509;28;20182;-84
2020/12/06 00:50:06;;;;;;;0.70;0.70;;;5.50;99.90;;;;;;5072060;28;20216;-84
2020/12/06 00:52:32;;;;;;;0.63;0.63;;;5.40;99.90;;;;;;5075834;28;20186;-84
2020/12/06 00:54:58;;;;;;;0.53;0.53;;;5.50;99.90;;;;;;5076481;28;20188;-85
2020/12/06 00:57:23;;;;;;;0.20;0.20;;;5.60;99.90;;;;;;5076399;28;20234;-85
2020/12/06 00:59:49;;;;;;;0.30;0.30;;;5.60;99.90;;;;;;5077173;28;20305;-83
2020/12/06 01:02:16;;;;;;;0.80;0.40;;;5.70;99.90;;;;;;5090183;28;20191;-85
2020/12/06 01:04:41;;;;;;;0.23;0.23;;;5.70;99.90;;;;;;5090623;28;20205;-85
2020/12/06 01:07:07;;;;;;;0.63;0.63;;;5.70;99.90;;;;;;5083994;28;20198;-84
2020/12/06 01:09:32;;;;;;;0.33;0.33;;;5.40;99.90;;;;;;5084962;28;20207;-86
2020/12/06 01:11:58;;;;;;;0.13;0.13;;;5.00;99.90;;;;;;5082783;28;20183;-84
2020/12/06 01:14:24;;;;;;;0.20;0.20;;;5.00;99.90;;;;;;5084428;28;20246;-84
2020/12/06 01:16:51;;;;;;;0.63;0.63;;;5.20;99.90;;;;;;5083819;28;20219;-84
2020/12/06 01:19:19;;;;;;;0.63;0.63;;;5.30;99.90;;;;;;5082069;28;20209;-84
2020/12/06 01:21:52;;;;;;;0.33;0.33;;;5.40;99.90;;;;;;5081665;28;20502;-84
2020/12/06 01:24:18;;;;;;;0.83;0.83;;;5.40;99.90;;;;;;5081250;28;20193;-85
2020/12/06 01:26:48;;;;;;;0.40;0.40;;;5.50;99.90;;;;;;5081824;28;20191;-84
2020/12/06 01:29:15;;;;;;;0.20;0.20;;;5.50;99.90;;;;;;5080447;28;20217;-84
2020/12/06 01:31:48;;;;;;;1.37;0.97;;;5.50;99.90;;;;;;5077871;28;20189;-84
2020/12/06 01:34:14;;;;;;;0.87;0.67;;;5.50;99.90;;;;;;5079282;28;20229;-85
2020/12/06 01:36:40;;;;;;;0.20;0.20;;;5.60;99.90;;;;;;5080424;28;20222;-84
2020/12/06 01:39:06;;;;;;;0.43;0.43;;;5.50;99.90;;;;;;5080617;28;20200;-85
2020/12/06 01:41:32;;;;;;;1.80;0.60;;;5.50;99.90;;;;;;5081133;28;20180;-84
2020/12/06 01:43:59;;;;;;;0.30;0.30;;;5.50;99.90;;;;;;5080650;28;20218;-85
2020/12/06 01:46:25;;;;;;;0.67;0.40;;;5.40;99.90;;;;;;5077526;28;20537;-84
2020/12/06 01:48:52;;;;;;;1.00;0.50;;;5.30;99.90;;;;;;5074576;28;20212;-84
2020/12/06 01:51:18;;;;;;;2.47;1.07;;;5.50;99.90;;;;;;5078376;28;20540;-84
2020/12/06 01:53:47;;;;;;;1.40;1.07;;;5.60;99.90;;;;;;5071321;28;20227;-83
2020/12/06 01:56:12;;;;;;;0.57;0.40;;;5.60;99.90;;;;;;5077469;28;20207;-84
2020/12/06 01:58:39;;;;;;;0.17;0.17;;;5.70;99.90;;;;;;5079222;28;20177;-84
2020/12/06 02:01:07;;;;;;;0.63;0.47;;;5.70;99.90;;;;;;5078545;28;20204;-85
2020/12/06 02:03:32;;;;;;;0.67;0.27;;;5.70;99.90;;;;;;5078318;28;20173;-84
2020/12/06 02:05:58;;;;;;;0.10;0.10;;;5.80;99.90;;;;;;5079154;28;20179;-85
2020/12/06 02:08:24;;;;;;;0.40;0.40;;;5.80;99.90;;;;;;5076438;28;20222;-84
2020/12/06 02:10:49;;;;;;;0.83;0.43;;;5.70;99.90;;;;;;5075754;28;20235;-84
2020/12/06 02:13:15;;;;;;;0.60;0.60;;;5.70;99.90;;;;;;5075929;28;20196;-84
2020/12/06 02:15:40;;;;;;;0.93;0.93;;;5.70;99.90;;;;;;5076443;28;20255;-84
2020/12/06 02:18:06;;;;;;;1.63;1.53;;;5.60;99.90;;;;;;5077709;28;20212;-84
2020/12/06 02:20:32;;;;;;;0.57;0.57;;;5.60;99.90;;;;;;5076510;28;20210;-84
2020/12/06 02:22:57;;;;;;;1.13;0.97;;;5.50;99.90;;;;;;5073750;28;20834;-85
2020/12/06 02:25:23;;;;;;;0.50;0.50;;;5.40;99.90;;;;;;5077282;28;20187;-84
2020/12/06 02:27:48;;;;;;;1.33;0.40;;;5.40;99.90;;;;;;5078025;28;20192;-85
2020/12/06 02:30:15;;;;;;;0.20;0.20;;;5.40;99.90;;;;;;5059455;28;20207;-83
2020/12/06 02:32:41;;;;;;;0.13;0.13;;;5.40;99.90;;;;;;5076556;28;20183;-84
2020/12/06 02:35:06;;;;;;;0.80;0.80;;;5.50;99.90;;;;;;5076795;28;20174;-84
2020/12/06 02:37:32;;;;;;;0.27;0.27;;;5.50;99.90;;;;;;5073740;28;20235;-84
2020/12/06 02:39:58;;;;;;;1.00;0.93;;;5.40;99.90;;;;;;5076330;28;20201;-84
2020/12/06 02:42:23;;;;;;;0.60;0.50;;;5.40;99.90;;;;;;5080897;28;20228;-84
2020/12/06 02:44:49;;;;;;;0.97;0.97;;;5.40;99.90;;;;;;5076850;28;20222;-84
2020/12/06 02:47:15;;;;;;;1.47;1.37;;;5.30;99.90;;;;;;5075172;28;20185;-83
2020/12/06 02:49:40;;;;;;;1.73;1.27;;;5.20;99.90;;;;;;5075501;28;20203;-84
2020/12/06 02:52:09;;;;;;;0.97;0.70;;;5.20;99.90;;;;;;5076029;28;20235;-84
2020/12/06 02:54:35;;;;;;;0.30;0.30;;;5.10;99.90;;;;;;5082676;28;20185;-84
2020/12/06 02:57:01;;;;;;;1.97;1.67;;;5.10;99.90;;;;;;5075399;28;20198;-84
2020/12/06 02:59:27;;;;;;;0.60;0.60;;;5.00;99.90;;;;;;5075395;28;20582;-87
2020/12/06 03:01:52;;;;;;;0.37;0.37;;;5.00;99.90;;;;;;5076035;28;20672;-84
2020/12/06 03:04:18;;;;;;;0.90;0.87;;;4.90;99.90;;;;;;5076344;28;20192;-84
2020/12/06 03:06:44;;;;;;;1.10;1.00;;;4.90;99.90;;;;;;5076037;28;20187;-84
2020/12/06 03:09:09;;;;;;;1.43;1.13;;;4.80;99.90;;;;;;5075989;28;20205;-84
2020/12/06 03:11:35;;;;;;;1.50;0.50;;;4.80;99.90;;;;;;5074810;28;20196;-83
2020/12/06 03:14:00;;;;;;;1.23;0.80;;;4.70;99.90;;;;;;5076886;28;20250;-84
2020/12/06 03:16:26;;;;;;;0.40;0.33;;;4.70;99.90;;;;;;5075872;28;20214;-84
2020/12/06 03:18:51;;;;;;;0.40;0.40;;;4.70;99.90;;;;;;5075075;28;20636;-85
2020/12/06 03:21:17;;;;;;;0.83;0.47;;;4.70;99.90;;;;;;5077120;28;20530;-85
2020/12/06 03:23:43;;;;;;;0.87;0.43;;;4.70;99.90;;;;;;5076889;28;20213;-83
2020/12/06 03:26:08;;;;;;;0.73;0.70;;;4.70;99.90;;;;;;5076383;28;20552;-84
2020/12/06 03:28:34;;;;;;;1.03;0.53;;;4.80;99.90;;;;;;5075356;28;20201;-85
2020/12/06 03:30:59;;;;;;;1.13;0.60;;;4.80;99.90;;;;;;5073555;28;20287;-84
2020/12/06 03:33:25;;;;;;;1.23;0.90;;;4.70;99.90;;;;;;5075110;28;20220;-84
2020/12/06 03:35:51;;;;;;;3.70;1.10;;;4.70;99.90;;;;;;5074121;28;20182;-85
2020/12/06 03:38:16;;;;;;;0.73;0.70;;;4.70;99.90;;;;;;5073503;28;20213;-83
2020/12/06 03:40:42;;;;;;;0.60;0.60;;;4.70;99.90;;;;;;5077192;28;20205;-85
2020/12/06 03:43:08;;;;;;;1.40;1.30;;;4.80;99.90;;;;;;5073542;28;20188;-83
2020/12/06 03:45:33;;;;;;;0.80;0.43;;;4.80;99.90;;;;;;5075192;28;20189;-84
2020/12/06 03:47:59;;;;;;;0.60;0.60;;;4.80;99.90;;;;;;5068811;28;20193;-85
2020/12/06 03:50:24;;;;;;;0.53;0.53;;;4.90;99.90;;;;;;5066806;28;20279;-83
2020/12/06 03:52:50;;;;;;;0.30;0.30;;;4.90;99.90;;;;;;5075700;28;20241;-84
2020/12/06 03:55:16;;;;;;;0.50;0.50;;;4.90;99.90;;;;;;5074305;28;20193;-84
2020/12/06 03:57:42;;;;;;;0.63;0.50;;;4.90;99.90;;;;;;5074490;28;20202;-84
2020/12/06 04:00:08;;;;;;;1.13;1.03;;;4.90;99.90;;;;;;5077145;28;20238;-84
2020/12/06 04:02:34;;;;;;;1.97;0.83;;;4.80;99.90;;;;;;5074869;28;20193;-85
2020/12/06 04:05:00;;;;;;;2.10;1.10;;;4.80;99.90;;;;;;5078202;28;20179;-84
2020/12/06 04:07:25;;;;;;;0.40;0.40;;;4.80;99.90;;;;;;5077501;28;20215;-84
2020/12/06 04:09:51;;;;;;;0.43;0.43;;;4.80;99.90;;;;;;5074900;28;20291;-84
2020/12/06 04:12:16;;;;;;;0.50;0.50;;;4.80;99.90;;;;;;5081197;28;20183;-84
2020/12/06 04:14:42;;;;;;;1.03;0.50;;;4.80;99.90;;;;;;5085213;28;20711;-84
2020/12/06 04:17:07;;;;;;;1.63;1.53;;;4.80;99.90;;;;;;5077819;28;20581;-85
2020/12/06 04:19:33;;;;;;;0.40;0.40;;;4.80;99.90;;;;;;5075468;28;20990;-85
2020/12/06 04:21:58;;;;;;;0.30;0.30;;;4.80;99.90;;;;;;5081371;28;20874;-85
2020/12/06 04:24:24;;;;;;;0.63;0.63;;;4.80;99.90;;;;;;5088986;28;20174;-85
2020/12/06 04:26:50;;;;;;;2.10;0.80;;;4.80;99.90;;;;;;5083784;28;20186;-84
2020/12/06 04:29:15;;;;;;;1.27;1.13;;;4.90;99.90;;;;;;5081398;28;20202;-84
2020/12/06 04:31:41;;;;;;;1.03;0.67;;;4.90;99.90;;;;;;5086130;28;20185;-84
2020/12/06 04:34:07;;;;;;;0.73;0.60;;;4.90;99.90;;;;;;5081711;28;20193;-85
2020/12/06 04:36:33;;;;;;;0.83;0.70;;;5.00;99.90;;;;;;5078577;28;20209;-85
2020/12/06 04:38:58;;;;;;;1.17;0.73;;;4.90;99.90;;;;;;5080792;28;20182;-84
2020/12/06 04:41:27;;;;;;;0.40;0.20;;;4.90;99.90;;;;;;5079873;28;20219;-85
2020/12/06 04:43:53;;;;;;;1.20;0.73;;;5.10;99.90;;;;;;5078938;28;20192;-84
2020/12/06 04:46:19;;;;;;;0.50;0.50;;;5.20;99.90;;;;;;5069873;28;20275;-84
2020/12/06 04:49:20;;;;;;;0.67;0.43;;;5.20;99.90;;;;;;5077545;28;20186;-84
2020/12/06 04:51:53;;;;;;;0.33;0.33;;;5.30;99.90;;;;;;5067597;28;20667;-84
2020/12/06 04:54:20;;;;;;;0.63;0.63;;;5.30;99.90;;;;;;5077921;28;20191;-84
2020/12/06 04:56:50;;;;;;;0.80;0.80;;;5.40;99.90;;;;;;5076032;28;20347;-85
2020/12/06 04:59:19;;;;;;;0.83;0.83;;;5.40;99.90;;;;;;5076793;28;20294;-84
2020/12/06 05:01:48;;;;;;;1.40;0.70;;;5.40;99.90;;;;;;5077719;28;20183;-84
2020/12/06 05:04:15;;;;;;;0.20;0.20;;;5.50;99.90;;;;;;5076359;28;20655;-83
2020/12/06 05:06:43;;;;;;;0.77;0.40;;;5.50;99.90;;;;;;5076084;28;20212;-85
2020/12/06 05:09:10;;;;;;;0.67;0.67;;;5.60;99.90;;;;;;5076742;28;20212;-85
2020/12/06 05:11:37;;;;;;;0.50;0.50;;;5.60;99.90;;;;;;5079408;28;20192;-84
2020/12/06 05:14:06;;;;;;;0.60;0.60;;;5.70;99.90;;;;;;5092228;28;20192;-85
2020/12/06 05:16:36;;;;;;;0.20;0.20;;;5.70;99.90;;;;;;5079897;28;20231;-85
2020/12/06 05:19:03;;;;;;;0.80;0.77;;;5.70;99.90;;;;;;5081516;28;20215;-84
2020/12/06 05:21:37;;;;;;;0.47;0.33;;;5.70;99.90;;;;;;5082434;28;20192;-83
2020/12/06 05:24:03;;;;;;;1.10;0.83;;;5.70;99.90;;;;;;5073887;28;20809;-83
2020/12/06 05:26:30;;;;;;;0.43;0.40;;;5.70;99.90;;;;;;5073400;28;20209;-84
2020/12/06 05:28:56;;;;;;;0.53;0.43;;;5.70;99.90;;;;;;5076127;28;20192;-83
2020/12/06 05:31:22;;;;;;;0.50;0.50;;;5.70;99.90;;;;;;5083007;28;20592;-84
2020/12/06 05:33:49;;;;;;;0.13;0.13;;;5.70;99.90;;;;;;5077397;28;20200;-83
2020/12/06 05:36:15;;;;;;;0.33;0.33;;;5.70;99.90;;;;;;5082628;28;20189;-84
2020/12/06 05:38:41;;;;;;;0.37;0.37;;;5.60;99.90;;;;;;5081044;28;20215;-83
2020/12/06 05:41:09;;;;;;;4.47;1.07;;;5.60;99.90;;;;;;5079335;28;20200;-85
2020/12/06 05:43:35;;;;;;;0.73;0.63;;;5.70;99.90;;;;;;5080610;28;20269;-84
2020/12/06 05:46:07;;;;;;;0.83;0.63;;;5.60;99.90;;;;;;5067072;28;20216;-84
2020/12/06 05:48:33;;;;;;;0.40;0.37;;;5.40;99.90;;;;;;5076472;28;20195;-84
2020/12/06 05:51:00;;;;;;;1.40;1.30;;;5.10;99.90;;;;;;5081010;28;20681;-83
2020/12/06 05:53:27;;;;;;;0.17;0.17;;;5.20;99.90;;;;;;5079019;28;20575;-84
2020/12/06 05:55:59;;;;;;;0.30;0.30;;;5.40;99.90;;;;;;5076424;28;20213;-83
2020/12/06 05:58:25;;;;;;;0.73;0.47;;;5.50;99.90;;;;;;5076299;28;20672;-84
2020/12/06 06:00:52;;;;;;;0.57;0.40;;;5.50;99.90;;;;;;5067545;28;20213;-83
2020/12/06 06:03:26;;;;;;;1.40;0.60;;;5.50;99.90;;;;;;5064849;28;20183;-83
2020/12/06 06:05:53;;;;;;;0.33;0.33;;;5.50;99.90;;;;;;5076988;28;20182;-84
2020/12/06 06:08:24;;;;;;;0.87;0.50;;;5.60;99.90;;;;;;5078887;28;20192;-85
2020/12/06 06:11:23;;;;;;;0.47;0.47;;;5.70;99.90;;;;;;5077719;28;20207;-84
2020/12/06 06:14:02;;;;;;;0.63;0.60;;;5.70;99.90;;;;;;5082350;28;20191;-83
2020/12/06 06:16:31;;;;;;;0.30;0.30;;;5.60;99.90;;;;;;5079460;28;20214;-83
2020/12/06 06:19:00;;;;;;;0.20;0.20;;;5.70;99.90;;;;;;5077904;28;20913;-83
2020/12/06 06:21:38;;;;;;;0.30;0.30;;;5.60;99.90;;;;;;5077044;28;20187;-83
2020/12/06 06:24:26;;;;;;;1.80;0.30;;;5.60;99.90;;;;;;5075158;28;20594;-83
2020/12/06 06:26:53;;;;;;;0.43;0.30;;;5.40;99.90;;;;;;5076319;28;20197;-84
2020/12/06 06:29:20;;;;;;;0.17;0.17;;;5.40;99.90;;;;;;5068657;28;20236;-84
2020/12/06 06:31:54;;;;;;;1.07;0.60;;;5.30;99.90;;;;;;5077870;28;20183;-83
2020/12/06 06:34:24;;;;;;;0.13;0.13;;;5.20;99.90;;;;;;5075065;28;20239;-82
2020/12/06 06:36:51;;;;;;;1.10;0.53;;;5.30;99.90;;;;;;5090773;28;20276;-82
2020/12/06 06:39:22;;;;;;;0.47;0.47;;;5.40;99.90;;;;;;5074425;28;20207;-83
2020/12/06 06:42:07;;;;;;;0.20;0.20;;;5.30;99.90;;;;;;5086681;28;20270;-82
2020/12/06 06:44:45;;;;;;;0.40;0.40;;;5.30;99.90;;;;;;5075824;28;20192;-82
2020/12/06 06:47:12;;;;;;;2.37;0.40;;;5.20;99.90;;;;;;5075762;28;20189;-82
2020/12/06 06:49:56;;;;;;;0.30;0.30;;;5.10;99.90;;;;;;5075408;28;20229;-82
2020/12/06 06:52:23;;;;;;;0.53;0.27;;;5.20;99.90;;;;;;5074240;28;20216;-82
2020/12/06 06:54:51;;;;;;;0.43;0.43;;;5.20;99.90;;;;;;5067545;28;20214;-85
2020/12/06 06:57:19;;;;;;;0.20;0.20;;;5.30;99.90;;;;;;5073770;28;20793;-82
2020/12/06 06:59:51;;;;;;;0.17;0.17;;;5.30;99.90;;;;;;5072121;28;20210;-83
2020/12/06 07:02:34;;;;;;;0.27;0.27;;;5.30;99.90;;;;;;5077599;28;20175;-83
2020/12/06 07:05:03;;;;;;;1.17;0.60;;;5.30;99.90;;;;;;5072672;28;20206;-84
2020/12/06 07:07:36;;;;;;;0.43;0.43;;;5.30;99.90;;;;;;5072849;28;20252;-83
2020/12/06 07:10:05;;;;;;;0.73;0.60;;;5.40;99.90;;;;;;5074243;28;20272;-84
2020/12/06 07:12:47;;;;;;;0.10;0.10;;;5.40;99.90;;;;;;5079773;28;20200;-83
2020/12/06 07:15:15;;;;;;;0.80;0.50;;;5.50;99.90;;;;;;5075455;28;20194;-82
2020/12/06 07:17:41;;;;;;;0.17;0.17;;;5.40;99.90;;;;;;5071857;28;20610;-83
2020/12/06 07:20:09;;;;;;;0.33;0.33;;;5.30;99.90;;;;;;5074458;28;20250;-84
2020/12/06 07:22:36;;;;;;;0.50;0.50;;;5.40;99.90;;;;;;5076874;28;20186;-83
2020/12/06 07:25:03;;;;;;;0.80;0.50;;;5.50;99.90;;;;;;5076089;28;20560;-83
2020/12/06 07:27:28;;;;;;;0.20;0.20;;;5.60;99.90;;;;;;5078063;28;20230;-83
2020/12/06 07:29:54;;;;;;;0.10;0.10;;;5.60;99.90;;;;;;5076408;28;20206;-83
2020/12/06 07:32:20;;;;;;;0.20;0.20;;;5.70;99.90;;;;;;5076857;28;20187;-84
2020/12/06 07:34:47;;;;;;;0.20;0.20;;;5.80;99.90;;;;;;5073571;28;20594;-82
2020/12/06 07:37:14;;;;;;;0.30;0.30;;;5.70;99.90;;;;;;5072767;28;20611;-81
2020/12/06 07:39:44;;;;;;;0.77;0.50;;;5.70;99.90;;;;;;5074215;28;20218;-83
2020/12/06 07:42:10;;;;;;;0.70;0.50;;;5.70;99.90;;;;;;5080657;28;20194;-85
2020/12/06 07:44:49;;;;;;;0.60;0.57;;;5.60;99.90;;;;;;5087778;28;20189;-84
2020/12/06 07:47:17;;;;;;;3.30;0.30;;;5.50;99.90;;;;;;5077653;28;20936;-83
2020/12/06 07:49:50;;;;;;;0.30;0.30;;;5.40;99.90;;;;;;5072437;28;20208;-84
2020/12/06 07:52:20;;;;;;;1.60;0.40;;;5.50;99.90;;;;;;5076296;28;20199;-83
2020/12/06 07:54:57;;;;;;;0.40;0.40;;;5.70;99.90;;;;;;5071106;28;21157;-83
2020/12/06 07:57:40;;;;;;;0.30;0.30;;;5.80;99.90;;;;;;5077519;28;20920;-83
2020/12/06 08:00:14;;;;;;;0.80;0.80;;;5.80;99.90;;;;;;5072350;28;20218;-84
2020/12/06 08:02:49;;;;;;;2.13;1.13;;;5.90;99.90;;;;;;5077195;28;20192;-86
2020/12/06 08:05:20;;;;;;;0.27;0.23;;;5.90;99.90;;;;;;5071228;28;20187;-81
2020/12/06 08:07:58;;;;;;;0.37;0.37;;;6.00;99.90;;;;;;5070186;28;20913;-80
2020/12/06 08:10:25;;;;;;;0.20;0.20;;;6.00;99.90;;;;;;5062880;28;20204;-82
2020/12/06 08:12:53;;;;;;;0.50;0.50;;;6.10;99.90;;;;;;5072542;28;20187;-83
2020/12/06 08:15:24;;;;;;;0.40;0.40;;;6.10;99.90;;;;;;5075426;28;20672;-84
2020/12/06 08:17:51;;;;;;;0.37;0.37;;;6.10;99.90;;;;;;5080404;28;20255;-83
2020/12/06 08:20:18;;;;;;;0.20;0.20;;;6.20;99.90;;;;;;5093227;28;20226;-84
2020/12/06 08:22:57;;;;;;;0.30;0.30;;;6.20;99.90;;;;;;5063137;28;20225;-82
2020/12/06 08:25:28;;;;;;;0.50;0.50;;;6.20;99.90;;;;;;5072556;28;20243;-83
2020/12/06 08:27:56;;;;;;;0.13;0.13;;;6.10;99.90;;;;;;5065631;28;20199;-84
2020/12/06 08:30:24;;;;;;;0.20;0.20;;;5.90;99.90;;;;;;5064851;28;21653;-81
2020/12/06 08:33:00;;;;;;;0.53;0.53;;;6.00;99.90;;;;;;5068045;28;20234;-83
2020/12/06 08:35:37;;;;;;;2.00;0.83;;;6.10;99.90;;;;;;5065594;28;20184;-84
2020/12/06 08:38:13;;;;;;;0.60;0.60;;;6.20;99.90;;;;;;5086806;28;20249;-85
2020/12/06 08:40:54;;;;;;;1.13;0.53;;;6.20;99.90;;;;;;5070551;28;20253;-86
2020/12/06 08:43:21;;;;;;;1.57;0.87;;;6.30;99.90;;;;;;5076121;28;20182;-84
2020/12/06 08:46:03;;;;;;;0.37;0.37;;;6.30;99.90;;;;;;5084202;28;20189;-84
2020/12/06 08:48:29;;;;;;;2.33;0.53;;;6.30;99.90;;;;;;5078158;28;20195;-85
2020/12/06 08:50:55;;;;;;;0.50;0.50;;;6.30;99.90;;;;;;5084787;28;20207;-82
2020/12/06 08:53:20;;;;;;;0.30;0.30;;;6.10;99.90;;;;;;5076096;28;20276;-83
2020/12/06 08:55:46;;;;;;;1.43;0.40;;;6.00;99.90;;;;;;5083547;28;20188;-83
2020/12/06 08:58:29;;;;;;;0.30;0.20;;;6.10;99.90;;;;;;5081415;28;20750;-84
2020/12/06 09:01:02;;;;;;;1.17;0.73;;;6.10;99.90;;;;;;5083971;28;20198;-86
2020/12/06 09:03:28;;;;;;;0.73;0.60;;;6.20;99.90;;;;;;5083574;28;20540;-85
2020/12/06 09:05:54;;;;;;;0.90;0.90;;;6.20;99.90;;;;;;5081937;28;20182;-84
2020/12/06 09:08:19;;;;;;;0.40;0.40;;;6.30;99.90;;;;;;5083685;28;20218;-85
2020/12/06 09:10:45;;;;;;;1.37;0.50;;;6.30;99.90;;;;;;5076865;28;20210;-85
2020/12/06 09:13:10;;;;;;;1.33;1.20;;;6.30;99.90;;;;;;5077329;28;20200;-83
2020/12/06 09:15:36;;;;;;;0.83;0.83;;;6.40;99.90;;;;;;5074482;28;20205;-83
2020/12/06 09:18:01;;;;;;;0.43;0.43;;;6.40;99.90;;;;;;5065796;28;20212;-82
2020/12/06 09:20:27;;;;;;;0.80;0.80;;;6.40;99.90;;;;;;5067082;28;20311;-83
2020/12/06 09:22:52;;;;;;;0.30;0.30;;;6.50;99.90;;;;;;5077934;28;20271;-83
2020/12/06 09:25:18;;;;;;;0.67;0.47;;;6.50;99.90;;;;;;5074893;28;20179;-84
2020/12/06 09:27:43;;;;;;;0.37;0.37;;;6.40;99.90;;;;;;5069605;28;20197;-83
2020/12/06 09:30:09;;;;;;;0.90;0.40;;;6.50;99.90;;;;;;5069143;28;20208;-83
2020/12/06 09:32:34;;;;;;;0.27;0.20;;;6.50;99.90;;;;;;5085496;28;20185;-83
2020/12/06 09:35:00;;;;;;;0.70;0.70;;;6.60;99.90;;;;;;5078901;28;20208;-85
2020/12/06 09:37:25;;;;;;;0.17;0.17;;;6.60;99.90;;;;;;5077968;28;20330;-84
2020/12/06 09:39:51;;;;;;;0.20;0.20;;;6.50;99.90;;;;;;5076464;28;20277;-84
2020/12/06 09:42:17;;;;;;;2.97;0.57;;;6.50;99.90;;;;;;5075466;28;20264;-85
2020/12/06 09:44:42;;;;;;;0.10;0.10;;;6.30;99.90;;;;;;5077040;28;20240;-83
2020/12/06 09:47:10;;;;;;;0.63;0.37;;;6.40;99.90;;;;;;5079902;28;20188;-84
2020/12/06 09:49:35;;;;;;;0.53;0.53;;;6.40;99.90;;;;;;5084353;28;20257;-84
2020/12/06 09:52:01;;;;;;;0.83;0.63;;;6.40;99.90;;;;;;5079095;28;20209;-83
2020/12/06 09:54:27;;;;;;;0.43;0.43;;;6.40;99.90;;;;;;5066662;28;20695;-82
2020/12/06 09:56:52;;;;;;;0.77;0.77;;;6.20;99.90;;;;;;5072267;28;20205;-83
2020/12/06 09:59:18;;;;;;;0.50;0.50;;;6.30;99.90;;;;;;5071531;28;20220;-84
2020/12/06 10:01:43;;;;;;;3.60;1.03;;;6.30;99.90;;;;;;5073905;28;20251;-83
2020/12/06 10:04:09;;;;;;;0.87;0.87;;;6.40;99.90;;;;;;5067858;28;20179;-83
2020/12/06 10:06:34;;;;;;;0.43;0.43;;;6.40;99.90;;;;;;5071407;28;20192;-84
2020/12/06 10:09:00;;;;;;;0.60;0.60;;;6.50;99.90;;;;;;5071711;28;20194;-83
2020/12/06 10:11:26;;;;;;;0.30;0.30;;;6.40;99.90;;;;;;5066306;28;20249;-84
2020/12/06 10:13:51;;;;;;;1.80;0.60;;;6.50;99.90;;;;;;5069766;28;20191;-84
2020/12/06 10:16:17;;;;;;;1.20;0.57;;;6.50;99.90;;;;;;5071445;28;20385;-83
2020/12/06 10:18:43;;;;;;;0.10;0.10;;;6.60;99.90;;;;;;5072078;28;20181;-83
2020/12/06 10:21:11;;;;;;;1.17;0.80;;;6.50;99.90;;;;;;5073123;28;20214;-83
2020/12/06 10:23:37;;;;;;;0.73;0.67;;;6.60;99.90;;;;;;5071015;28;21249;-82
2020/12/06 10:26:03;;;;;;;0.73;0.30;;;6.60;99.90;;;;;;5073708;28;20674;-83
2020/12/06 10:28:28;;;;;;;0.53;0.53;;;6.70;99.90;;;;;;5073295;28;20195;-83
2020/12/06 10:30:54;;;;;;;0.67;0.50;;;6.70;99.90;;;;;;5073359;28;20207;-87
2020/12/06 10:33:20;;;;;;;0.57;0.50;;;6.60;99.90;;;;;;5070834;28;20186;-84
2020/12/06 10:35:45;;;;;;;1.13;0.77;;;6.70;99.90;;;;;;5070918;28;20217;-83
2020/12/06 10:38:11;;;;;;;0.40;0.40;;;6.70;99.90;;;;;;5072344;28;20254;-83
2020/12/06 10:40:38;;;;;;;2.93;0.70;;;6.70;99.90;;;;;;5071594;28;20205;-83
2020/12/06 10:43:03;;;;;;;0.60;0.60;;;6.70;99.90;;;;;;5072614;28;20622;-83
2020/12/06 10:45:29;;;;;;;0.73;0.73;;;6.70;99.90;;;;;;5072669;28;20212;-83
2020/12/06 10:47:54;;;;;;;1.13;0.40;;;6.70;99.90;;;;;;5072170;28;20532;-83
2020/12/06 10:50:20;;;;;;;0.33;0.30;;;6.80;99.90;;;;;;5071903;28;20295;-83
2020/12/06 10:52:45;;;;;;;0.33;0.33;;;6.80;99.90;;;;;;5067434;28;20194;-84
2020/12/06 10:55:11;;;;;;;1.93;1.83;;;6.70;99.90;;;;;;5072876;28;20230;-82
2020/12/06 10:57:37;;;;;;;0.10;0.10;;;6.70;99.90;;;;;;5063478;28;20260;-83
2020/12/06 11:00:05;;;;;;;1.13;0.67;;;6.70;99.90;;;;;;5076315;28;20270;-83
2020/12/06 11:02:31;;;;;;;1.63;0.60;;;6.70;99.90;;;;;;5081076;28;20186;-85
2020/12/06 11:04:57;;;;;;;0.50;0.50;;;6.70;99.90;;;;;;5079102;28;20652;-83
2020/12/06 11:07:23;;;;;;;0.67;0.67;;;6.70;99.90;;;;;;5076762;28;20599;-82
2020/12/06 11:09:49;;;;;;;1.17;1.10;;;6.70;99.90;;;;;;5077032;28;20235;-83
2020/12/06 11:12:14;;;;;;;0.53;0.53;;;6.60;99.90;;;;;;5078652;28;20191;-82
2020/12/06 11:14:40;;;;;;;2.30;0.47;;;6.70;99.90;;;;;;5075092;28;20254;-83
2020/12/06 11:17:05;;;;;;;1.37;1.33;;;6.70;99.90;;;;;;5077184;28;20207;-83
2020/12/06 11:19:31;;;;;;;1.70;0.60;;;6.70;99.90;;;;;;5074129;28;20691;-83
2020/12/06 11:21:57;;;;;;;0.40;0.40;;;6.80;99.90;;;;;;5074332;28;20238;-84
2020/12/06 11:24:22;;;;;;;0.50;0.50;;;6.90;99.90;;;;;;5075319;28;20181;-83
2020/12/06 11:26:48;;;;;;;0.57;0.50;;;6.90;99.90;;;;;;5074449;28;20199;-83
2020/12/06 11:29:13;;;;;;;3.77;0.53;;;6.80;99.90;;;;;;5074528;28;20215;-84
2020/12/06 11:31:39;;;;;;;1.53;0.33;;;6.70;99.90;;;;;;5079424;28;20188;-84
2020/12/06 11:34:05;;;;;;;1.40;0.47;;;6.60;99.90;;;;;;5071287;28;20193;-83
2020/12/06 11:36:31;;;;;;;0.87;0.60;;;6.60;99.90;;;;;;5072071;28;20766;-83
2020/12/06 11:38:57;;;;;;;2.20;1.00;;;6.60;99.90;;;;;;5066387;28;20186;-84
2020/12/06 11:41:24;;;;;;;0.60;0.60;;;6.60;99.90;;;;;;5070021;28;20194;-83
2020/12/06 11:43:49;;;;;;;0.30;0.30;;;6.60;99.90;;;;;;5077084;28;20177;-84
2020/12/06 11:46:15;;;;;;;1.27;0.63;;;6.70;99.90;;;;;;5077163;28;20720;-84
2020/12/06 11:48:40;;;;;;;0.77;0.77;;;6.60;99.90;;;;;;5075263;28;20191;-83
2020/12/06 11:51:06;;;;;;;0.30;0.30;;;6.50;99.90;;;;;;5074700;28;20261;-83
2020/12/06 11:53:34;;;;;;;0.93;0.80;;;6.60;99.90;;;;;;5074166;28;20208;-84
2020/12/06 11:56:00;;;;;;;2.60;1.63;;;6.80;99.90;;;;;;5074895;28;20586;-83
2020/12/06 11:58:25;;;;;;;0.73;0.73;;;6.90;99.90;;;;;;5072606;28;20217;-83
2020/12/06 12:00:51;;;;;;;0.20;0.20;;;6.90;99.90;;;;;;5072818;28;20250;-83
2020/12/06 12:03:17;;;;;;;0.67;0.47;;;7.00;99.90;;;;;;5072818;28;20185;-83
2020/12/06 12:05:42;;;;;;;1.33;0.93;;;7.10;99.90;;;;;;5070147;28;20551;-84
2020/12/06 12:08:10;;;;;;;0.40;0.40;;;7.20;99.90;;;;;;5068415;28;20196;-83
2020/12/06 12:10:35;;;;;;;0.70;0.43;;;7.20;99.90;;;;;;5070345;28;20204;-83
2020/12/06 12:13:01;;;;;;;0.10;0.10;;;7.20;99.90;;;;;;5067944;28;20272;-83
2020/12/06 12:15:26;;;;;;;0.37;0.27;;;7.30;99.90;;;;;;5072071;28;20192;-83
2020/12/06 12:17:52;;;;;;;0.10;0.10;;;7.30;99.90;;;;;;5061283;28;20757;-83
2020/12/06 12:20:18;;;;;;;0.40;0.40;;;7.20;99.90;;;;;;5075882;28;20238;-83
2020/12/06 12:22:43;;;;;;;0.53;0.43;;;7.20;99.90;;;;;;5074592;28;20181;-83
2020/12/06 12:25:09;;;;;;;0.37;0.30;;;7.10;99.90;;;;;;5077520;28;20236;-83
2020/12/06 12:27:35;;;;;;;0.33;0.27;;;7.10;99.90;;;;;;5075076;28;20234;-83
2020/12/06 12:30:01;;;;;;;0.73;0.23;;;7.10;99.90;;;;;;5074482;28;20215;-82
2020/12/06 12:32:26;;;;;;;0.60;0.60;;;7.10;99.90;;;;;;5076780;28;20185;-83
2020/12/06 12:34:52;;;;;;;1.13;0.57;;;7.10;99.90;;;;;;5074371;28;20181;-83
2020/12/06 12:37:18;;;;;;;0.90;0.67;;;7.10;99.90;;;;;;5070837;28;20206;-83
2020/12/06 12:39:44;;;;;;;1.03;0.40;;;7.10;99.90;;;;;;5072531;28;20593;-82
2020/12/06 12:42:10;;;;;;;0.80;0.80;;;7.00;99.90;;;;;;5072511;28;20196;-83
2020/12/06 12:44:37;;;;;;;0.47;0.47;;;7.00;99.90;;;;;;5077743;28;20188;-86
2020/12/06 12:47:02;;;;;;;0.53;0.53;;;7.00;99.90;;;;;;5080733;28;20195;-83
2020/12/06 12:49:29;;;;;;;0.77;0.63;;;7.00;99.90;;;;;;5075591;28;20225;-83
2020/12/06 12:51:55;;;;;;;1.20;1.00;;;7.00;99.90;;;;;;5078741;28;20183;-83
2020/12/06 12:54:22;;;;;;;0.63;0.63;;;7.00;99.90;;;;;;5075561;28;20185;-82
2020/12/06 12:56:48;;;;;;;1.17;1.17;;;7.00;99.90;;;;;;5075306;28;20207;-81
2020/12/06 12:59:13;;;;;;;0.63;0.63;;;7.10;99.90;;;;;;5078053;28;20289;-81